Shanghai, Shanghai

4:45 PM CST on September 02, 2015 (GMT +0800)
Xi Gong | | Change Station
CLOSE
Current Station
Personal Weather Station
Location: Shanghai, SHANGHAI
Elevation: 26 ft
Nearby Weather Stations

Elev 26 ft 31.24 °N, 121.42 °E | Updated 2 seconds ago

Mostly Cloudy
Mostly Cloudy
84.9 °F
Feels Like 90 °F
N
0.2
Wind Variable Wind from ESE
Gusts 2.2 mph

Today
High -- | Low -- °F
--% Chance of Precip.
Yesterday
High -- | Low -- °F
Precip. -- in
5:30 AM 6:17 PM
Waning Gibbous, 82% visible
Pressure 29.83 in
Visibility 5.0 miles
Clouds Few 3000 ft
Mostly Cloudy 3300 ft
Heat Index 90 °F
Dew Point 70 °F
Humidity 62%
Rainfall 0.00 in
Snow Depth Not available.
UV 1 out of 12
Pollen Not available.
Air Quality Not available.
Flu Activity Not available.
METAR ZSSS 020830Z 12005MPS 8000 FEW030TCU BKN033 29/22 Q1010 NOSIG
Pressure 29.83 in
Visibility 5.0 miles
Clouds Few 3000 ft
Mostly Cloudy 3300 ft
Heat Index 90 °F
Dew Point 70 °F
Humidity 62%
Rainfall 0.00 in
Snow Depth Not available.
UV 1 out of 12
Pollen Not available.
Air Quality Not available.
Flu Activity Not available.
METAR ZSSS 020830Z 12005MPS 8000 FEW030TCU BKN033 29/22 Q1010 NOSIG

10-Day Weather Forecast

×

Almanac

Astronomy

Sep. 02, 2015 Rise Set
Actual Time
Civil Twilight
Nautical Twilight
Astronomical Twilight
Moon
Length of Visible Light
Length of Day
Tomorrow will be .
, % of the Moon is Illuminated

Today's Extremes

Country Highs Country Lows

Community

WunderPhotos

Upload Photos

1,851,728 photos uploaded!

WunderBlogs® & News

Nearby

Air Quality

  Air Quality AQ Index Pollutant
Not available.

Snow Depth

Station Depth Elevation

Earthquake Activity

City Distance Mag. Time & Date
Minimum magnitude displayed is 2.5.

Coastal Water Temperatures

Place Temperature

Stations

Nearby Weather Stations

Station Location Temp. Windchill Dew Point Humidity Wind Precip. Elev Updated Type